UAL67 KMCO-KEYW
Flight info
| Callsign | UAL67 |
|---|---|
| Flight time | 0h 49m |
| Altitude | 19000 |
| Route | FSHUN4 PLUMR RSW KARTR KRAKN1 |
| Aircraft | A320/M-SDE3FGHIRWY/LB1 |
Departure
| Time | 2026-04-25 17:53 |
|---|---|
| Airport | Orlando International Airport (KMCO) |
Arrival
| Time | 2026-04-25 18:43 |
|---|---|
| Airport | Key West International Airport (KEYW) |
| Time | Latitude | Longitude | Altitude | Speed | Heading |
|---|---|---|---|---|---|
| 2026-04-25 17:10 | 28.42874 | -81.29989 | 97 ft | 0 kts | 257° |
| 2026-04-25 17:42 | 28.42874 | -81.29987 | 96 ft | 1 kts | 257° |
| 2026-04-25 17:42 | 28.42877 | -81.29969 | 95 ft | 3 kts | 258° |
| 2026-04-25 17:42 | 28.42882 | -81.29946 | 94 ft | 3 kts | 257° |
| 2026-04-25 17:42 | 28.42887 | -81.29924 | 93 ft | 3 kts | 253° |
| 2026-04-25 17:43 | 28.42894 | -81.29903 | 96 ft | 3 kts | 236° |
| 2026-04-25 17:43 | 28.42904 | -81.29889 | 95 ft | 3 kts | 188° |
| 2026-04-25 17:43 | 28.42913 | -81.29889 | 94 ft | 1 kts | 171° |
| 2026-04-25 17:43 | 28.42914 | -81.29889 | 94 ft | 0 kts | 171° |
| 2026-04-25 17:48 | 28.42908 | -81.29886 | 94 ft | 2 kts | 155° |
| 2026-04-25 17:49 | 28.42911 | -81.29848 | 95 ft | 7 kts | 76° |
| 2026-04-25 17:49 | 28.42939 | -81.29800 | 95 ft | 8 kts | 22° |
| 2026-04-25 17:49 | 28.43004 | -81.29798 | 95 ft | 10 kts | 360° |
| 2026-04-25 17:49 | 28.43084 | -81.29798 | 95 ft | 13 kts | 360° |
| 2026-04-25 17:50 | 28.43179 | -81.29803 | 96 ft | 15 kts | 354° |
| 2026-04-25 17:50 | 28.43290 | -81.29807 | 95 ft | 17 kts | 360° |
| 2026-04-25 17:50 | 28.43415 | -81.29804 | 95 ft | 18 kts | 1° |
| 2026-04-25 17:50 | 28.43518 | -81.29804 | 95 ft | 12 kts | 2° |
| 2026-04-25 17:51 | 28.43555 | -81.29744 | 95 ft | 11 kts | 105° |
| 2026-04-25 17:51 | 28.43549 | -81.29652 | 96 ft | 12 kts | 89° |
| 2026-04-25 17:51 | 28.43545 | -81.29562 | 97 ft | 9 kts | 126° |
| 2026-04-25 17:51 | 28.43510 | -81.29575 | 97 ft | 6 kts | 212° |
| 2026-04-25 17:52 | 28.43466 | -81.29583 | 99 ft | 7 kts | 175° |
| 2026-04-25 17:52 | 28.43449 | -81.29582 | 98 ft | 7 kts | 175° |
| 2026-04-25 17:52 | 28.43307 | -81.29583 | 100 ft | 30 kts | 178° |
| 2026-04-25 17:52 | 28.42852 | -81.29580 | 99 ft | 98 kts | 180° |
| 2026-04-25 17:53 | 28.41988 | -81.29573 | 99 ft | 148 kts | 180° |
| 2026-04-25 17:53 | 28.40911 | -81.29553 | 565 ft | 146 kts | 179° |
| 2026-04-25 17:53 | 28.39893 | -81.29523 | 1086 ft | 149 kts | 184° |
| 2026-04-25 17:53 | 28.38883 | -81.29780 | 1561 ft | 150 kts | 205° |
| 2026-04-25 17:54 | 28.37900 | -81.30266 | 1916 ft | 163 kts | 204° |
| 2026-04-25 17:54 | 28.36790 | -81.30820 | 2161 ft | 186 kts | 204° |
| 2026-04-25 17:54 | 28.35516 | -81.31408 | 2408 ft | 210 kts | 202° |
| 2026-04-25 17:54 | 28.34088 | -81.32033 | 2732 ft | 235 kts | 201° |
| 2026-04-25 17:55 | 28.32485 | -81.32729 | 3204 ft | 256 kts | 201° |
| 2026-04-25 17:55 | 28.30796 | -81.33459 | 4021 ft | 262 kts | 201° |
| 2026-04-25 17:55 | 28.29076 | -81.34205 | 4902 ft | 266 kts | 201° |
| 2026-04-25 17:55 | 28.27334 | -81.34964 | 5787 ft | 270 kts | 201° |
| 2026-04-25 17:56 | 28.25571 | -81.35732 | 6645 ft | 274 kts | 201° |
| 2026-04-25 17:56 | 28.23783 | -81.36510 | 7473 ft | 277 kts | 201° |
| 2026-04-25 17:56 | 28.21973 | -81.37298 | 8291 ft | 280 kts | 201° |
| 2026-04-25 17:56 | 28.20141 | -81.38097 | 9078 ft | 284 kts | 201° |
| 2026-04-25 17:57 | 28.18287 | -81.38906 | 9843 ft | 287 kts | 201° |
| 2026-04-25 17:57 | 28.16396 | -81.39731 | 10389 ft | 300 kts | 201° |
| 2026-04-25 17:57 | 28.14371 | -81.40617 | 10635 ft | 321 kts | 201° |
| 2026-04-25 17:57 | 28.13664 | -81.40927 | 10798 ft | 325 kts | 201° |
| 2026-04-25 17:58 | 28.10103 | -81.42486 | 11859 ft | 333 kts | 201° |
| 2026-04-25 17:58 | 28.07927 | -81.43431 | 12536 ft | 337 kts | 201° |
| 2026-04-25 17:58 | 28.05755 | -81.44372 | 13178 ft | 340 kts | 201° |
| 2026-04-25 17:58 | 28.03541 | -81.45333 | 13826 ft | 343 kts | 201° |
| 2026-04-25 17:59 | 28.01295 | -81.46309 | 14469 ft | 347 kts | 201° |
| 2026-04-25 17:59 | 27.99033 | -81.47292 | 15087 ft | 350 kts | 201° |
| 2026-04-25 17:59 | 27.96750 | -81.48280 | 15688 ft | 353 kts | 201° |
| 2026-04-25 17:59 | 27.94451 | -81.49277 | 16272 ft | 356 kts | 201° |
| 2026-04-25 18:00 | 27.92156 | -81.50375 | 16840 ft | 359 kts | 208° |
| 2026-04-25 18:00 | 27.90057 | -81.51918 | 17416 ft | 362 kts | 218° |
| 2026-04-25 18:00 | 27.88056 | -81.53654 | 17967 ft | 365 kts | 218° |
| 2026-04-25 18:00 | 27.86029 | -81.55400 | 18523 ft | 368 kts | 217° |
| 2026-04-25 18:01 | 27.83974 | -81.57159 | 18906 ft | 371 kts | 217° |
| 2026-04-25 18:01 | 27.81925 | -81.58908 | 18994 ft | 366 kts | 217° |
| 2026-04-25 18:01 | 27.79900 | -81.60634 | 19009 ft | 362 kts | 217° |
| 2026-04-25 18:01 | 27.77899 | -81.62341 | 19009 ft | 360 kts | 217° |
| 2026-04-25 18:02 | 27.75899 | -81.64050 | 19009 ft | 360 kts | 217° |
| 2026-04-25 18:02 | 27.73903 | -81.65754 | 19009 ft | 360 kts | 217° |
| 2026-04-25 18:02 | 27.71892 | -81.67436 | 19009 ft | 360 kts | 213° |
| 2026-04-25 18:02 | 27.70456 | -81.68365 | 19009 ft | 360 kts | 205° |
| 2026-04-25 18:03 | 27.68114 | -81.69321 | 19010 ft | 360 kts | 193° |
| 2026-04-25 18:03 | 27.65627 | -81.69722 | 19009 ft | 360 kts | 183° |
| 2026-04-25 18:03 | 27.63120 | -81.69886 | 19010 ft | 361 kts | 184° |
| 2026-04-25 18:03 | 27.59800 | -81.70120 | 19013 ft | 361 kts | 184° |
| 2026-04-25 18:04 | 27.57289 | -81.70301 | 19014 ft | 361 kts | 184° |
| 2026-04-25 18:04 | 27.55596 | -81.70424 | 19017 ft | 361 kts | 184° |
| 2026-04-25 18:04 | 27.53117 | -81.70606 | 19018 ft | 361 kts | 184° |
| 2026-04-25 18:04 | 27.50607 | -81.70785 | 19020 ft | 361 kts | 184° |
| 2026-04-25 18:05 | 27.48095 | -81.70961 | 19022 ft | 361 kts | 184° |
| 2026-04-25 18:05 | 27.45584 | -81.71137 | 19022 ft | 361 kts | 184° |
| 2026-04-25 18:05 | 27.43074 | -81.71314 | 19024 ft | 361 kts | 184° |
| 2026-04-25 18:05 | 27.40571 | -81.71490 | 19022 ft | 361 kts | 184° |
| 2026-04-25 18:06 | 27.38061 | -81.71664 | 19022 ft | 361 kts | 184° |
| 2026-04-25 18:06 | 27.35557 | -81.71837 | 19022 ft | 361 kts | 184° |
| 2026-04-25 18:06 | 27.33060 | -81.72013 | 19021 ft | 361 kts | 184° |
| 2026-04-25 18:06 | 27.30553 | -81.72190 | 19023 ft | 361 kts | 184° |
| 2026-04-25 18:07 | 27.28047 | -81.72364 | 19023 ft | 361 kts | 184° |
| 2026-04-25 18:07 | 27.25542 | -81.72538 | 19024 ft | 361 kts | 184° |
| 2026-04-25 18:07 | 27.23022 | -81.72711 | 19024 ft | 361 kts | 184° |
| 2026-04-25 18:07 | 27.20509 | -81.72885 | 19027 ft | 362 kts | 184° |
| 2026-04-25 18:08 | 27.18003 | -81.73060 | 19027 ft | 362 kts | 184° |
| 2026-04-25 18:08 | 27.15492 | -81.73237 | 19030 ft | 361 kts | 184° |
| 2026-04-25 18:08 | 27.12982 | -81.73414 | 19026 ft | 361 kts | 184° |
| 2026-04-25 18:08 | 27.10473 | -81.73589 | 19028 ft | 361 kts | 184° |
| 2026-04-25 18:09 | 27.07996 | -81.73760 | 19030 ft | 361 kts | 184° |
| 2026-04-25 18:09 | 27.05451 | -81.73935 | 19030 ft | 361 kts | 184° |
| 2026-04-25 18:09 | 27.02976 | -81.74109 | 19030 ft | 361 kts | 184° |
| 2026-04-25 18:09 | 27.01280 | -81.74230 | 19029 ft | 361 kts | 184° |
| 2026-04-25 18:10 | 26.97958 | -81.74467 | 19029 ft | 361 kts | 184° |
| 2026-04-25 18:10 | 26.95446 | -81.74644 | 19026 ft | 361 kts | 184° |
| 2026-04-25 18:10 | 26.92942 | -81.74818 | 19028 ft | 361 kts | 184° |
| 2026-04-25 18:10 | 26.90433 | -81.74991 | 19030 ft | 361 kts | 184° |
| 2026-04-25 18:11 | 26.87925 | -81.75161 | 19028 ft | 361 kts | 184° |
| 2026-04-25 18:11 | 26.85409 | -81.75332 | 19030 ft | 361 kts | 184° |
| 2026-04-25 18:11 | 26.82902 | -81.75504 | 19030 ft | 361 kts | 184° |
| 2026-04-25 18:11 | 26.80392 | -81.75677 | 19031 ft | 361 kts | 184° |
| 2026-04-25 18:12 | 26.77877 | -81.75853 | 19031 ft | 361 kts | 184° |
| 2026-04-25 18:12 | 26.75408 | -81.76027 | 19031 ft | 361 kts | 184° |
| 2026-04-25 18:12 | 26.72888 | -81.76205 | 19031 ft | 361 kts | 184° |
| 2026-04-25 18:12 | 26.70374 | -81.76379 | 19031 ft | 361 kts | 184° |
| 2026-04-25 18:13 | 26.67872 | -81.76550 | 19031 ft | 361 kts | 184° |
| 2026-04-25 18:13 | 26.65364 | -81.76724 | 19029 ft | 361 kts | 184° |
| 2026-04-25 18:13 | 26.62856 | -81.76897 | 19031 ft | 361 kts | 184° |
| 2026-04-25 18:14 | 26.57833 | -81.77247 | 19031 ft | 361 kts | 184° |
| 2026-04-25 18:14 | 26.55324 | -81.77420 | 19031 ft | 361 kts | 184° |
| 2026-04-25 18:14 | 26.52847 | -81.77417 | 19031 ft | 361 kts | 174° |
| 2026-04-25 18:14 | 26.50370 | -81.76915 | 19032 ft | 361 kts | 167° |
| 2026-04-25 18:15 | 26.47912 | -81.76279 | 19032 ft | 362 kts | 167° |
| 2026-04-25 18:15 | 26.45468 | -81.75648 | 19032 ft | 361 kts | 167° |
| 2026-04-25 18:15 | 26.43017 | -81.75018 | 19032 ft | 362 kts | 167° |
| 2026-04-25 18:15 | 26.40564 | -81.74391 | 19031 ft | 362 kts | 167° |
| 2026-04-25 18:16 | 26.38112 | -81.73764 | 19032 ft | 362 kts | 167° |
| 2026-04-25 18:16 | 26.35659 | -81.73137 | 19030 ft | 362 kts | 167° |
| 2026-04-25 18:16 | 26.30756 | -81.71880 | 19032 ft | 362 kts | 167° |
| 2026-04-25 18:17 | 26.28304 | -81.71253 | 19032 ft | 361 kts | 167° |
| 2026-04-25 18:17 | 26.25853 | -81.70625 | 19032 ft | 361 kts | 167° |
| 2026-04-25 18:17 | 26.23397 | -81.69997 | 19031 ft | 361 kts | 167° |
| 2026-04-25 18:17 | 26.20956 | -81.69374 | 19031 ft | 361 kts | 167° |
| 2026-04-25 18:18 | 26.18496 | -81.68747 | 19029 ft | 361 kts | 167° |
| 2026-04-25 18:18 | 26.16045 | -81.68125 | 19031 ft | 361 kts | 167° |
| 2026-04-25 18:18 | 26.13594 | -81.67503 | 19031 ft | 361 kts | 167° |
| 2026-04-25 18:18 | 26.11142 | -81.66879 | 19031 ft | 361 kts | 167° |
| 2026-04-25 18:19 | 26.08701 | -81.66257 | 19031 ft | 361 kts | 167° |
| 2026-04-25 18:19 | 26.06243 | -81.65634 | 19031 ft | 361 kts | 167° |
| 2026-04-25 18:19 | 26.03829 | -81.65021 | 19028 ft | 361 kts | 167° |
| 2026-04-25 18:19 | 26.01380 | -81.64397 | 19031 ft | 361 kts | 167° |
| 2026-04-25 18:20 | 25.98939 | -81.63774 | 19027 ft | 361 kts | 167° |
| 2026-04-25 18:20 | 25.96493 | -81.63150 | 19028 ft | 361 kts | 167° |
| 2026-04-25 18:20 | 25.94010 | -81.62518 | 19028 ft | 361 kts | 167° |
| 2026-04-25 18:20 | 25.91595 | -81.61906 | 19031 ft | 361 kts | 167° |
| 2026-04-25 18:21 | 25.89146 | -81.61286 | 19031 ft | 361 kts | 167° |
| 2026-04-25 18:21 | 25.86705 | -81.60668 | 19029 ft | 361 kts | 167° |
| 2026-04-25 18:21 | 25.84257 | -81.60046 | 19031 ft | 361 kts | 167° |
| 2026-04-25 18:21 | 25.81808 | -81.59426 | 19031 ft | 361 kts | 167° |
| 2026-04-25 18:22 | 25.79360 | -81.58806 | 19031 ft | 361 kts | 167° |
| 2026-04-25 18:22 | 25.78535 | -81.58597 | 19031 ft | 361 kts | 167° |
| 2026-04-25 18:22 | 25.74466 | -81.57569 | 19029 ft | 361 kts | 167° |
| 2026-04-25 18:22 | 25.72020 | -81.56952 | 19028 ft | 360 kts | 167° |
| 2026-04-25 18:23 | 25.69575 | -81.56332 | 19027 ft | 360 kts | 167° |
| 2026-04-25 18:23 | 25.67132 | -81.55709 | 19026 ft | 360 kts | 167° |
| 2026-04-25 18:23 | 25.64689 | -81.55090 | 19028 ft | 360 kts | 167° |
| 2026-04-25 18:23 | 25.62240 | -81.54471 | 19025 ft | 360 kts | 167° |
| 2026-04-25 18:24 | 25.59795 | -81.53853 | 19027 ft | 360 kts | 167° |
| 2026-04-25 18:24 | 25.57358 | -81.53242 | 19028 ft | 360 kts | 167° |
| 2026-04-25 18:24 | 25.54913 | -81.52628 | 19028 ft | 360 kts | 167° |
| 2026-04-25 18:24 | 25.52453 | -81.52051 | 19026 ft | 360 kts | 172° |
| 2026-04-25 18:25 | 25.49964 | -81.51924 | 19026 ft | 359 kts | 184° |
| 2026-04-25 18:25 | 25.47490 | -81.52377 | 19021 ft | 363 kts | 196° |
| 2026-04-25 18:25 | 25.45104 | -81.53363 | 19011 ft | 368 kts | 203° |
| 2026-04-25 18:25 | 25.42773 | -81.54449 | 19009 ft | 369 kts | 203° |
| 2026-04-25 18:26 | 25.40408 | -81.55548 | 19008 ft | 368 kts | 203° |
| 2026-04-25 18:26 | 25.38109 | -81.56614 | 18931 ft | 346 kts | 203° |
| 2026-04-25 18:26 | 25.35943 | -81.57616 | 18578 ft | 331 kts | 203° |
| 2026-04-25 18:26 | 25.33841 | -81.58591 | 17993 ft | 325 kts | 203° |
| 2026-04-25 18:27 | 25.31766 | -81.59553 | 17356 ft | 321 kts | 203° |
| 2026-04-25 18:27 | 25.29721 | -81.60499 | 16715 ft | 318 kts | 203° |
| 2026-04-25 18:27 | 25.27692 | -81.61433 | 16079 ft | 314 kts | 203° |
| 2026-04-25 18:27 | 25.25681 | -81.62357 | 15446 ft | 311 kts | 203° |
| 2026-04-25 18:28 | 25.23689 | -81.63274 | 14817 ft | 308 kts | 203° |
| 2026-04-25 18:28 | 25.21718 | -81.64185 | 14205 ft | 306 kts | 203° |
| 2026-04-25 18:28 | 25.19762 | -81.65090 | 13582 ft | 304 kts | 203° |
| 2026-04-25 18:29 | 25.15880 | -81.66882 | 12908 ft | 301 kts | 203° |
| 2026-04-25 18:29 | 25.13955 | -81.67770 | 12571 ft | 299 kts | 203° |
| 2026-04-25 18:30 | 25.08229 | -81.70405 | 11551 ft | 294 kts | 203° |
| 2026-04-25 18:30 | 25.06348 | -81.71269 | 11221 ft | 293 kts | 203° |
| 2026-04-25 18:30 | 25.04471 | -81.72133 | 10879 ft | 291 kts | 203° |
| 2026-04-25 18:30 | 25.02603 | -81.72990 | 10545 ft | 290 kts | 203° |
| 2026-04-25 18:31 | 25.00745 | -81.73843 | 10212 ft | 289 kts | 203° |
| 2026-04-25 18:31 | 24.98895 | -81.74691 | 9878 ft | 287 kts | 203° |
| 2026-04-25 18:31 | 24.97075 | -81.75526 | 9553 ft | 286 kts | 203° |
| 2026-04-25 18:31 | 24.95244 | -81.76366 | 9223 ft | 284 kts | 203° |
| 2026-04-25 18:32 | 24.93419 | -81.77207 | 8893 ft | 283 kts | 203° |
| 2026-04-25 18:32 | 24.91606 | -81.78042 | 8555 ft | 282 kts | 203° |
| 2026-04-25 18:32 | 24.89802 | -81.78870 | 8238 ft | 280 kts | 203° |
| 2026-04-25 18:32 | 24.88025 | -81.79738 | 7918 ft | 279 kts | 210° |
| 2026-04-25 18:33 | 24.86389 | -81.80873 | 7588 ft | 277 kts | 213° |
| 2026-04-25 18:33 | 24.84781 | -81.82018 | 7130 ft | 274 kts | 213° |
| 2026-04-25 18:33 | 24.83185 | -81.83152 | 6541 ft | 272 kts | 213° |
| 2026-04-25 18:33 | 24.81600 | -81.84278 | 5964 ft | 270 kts | 213° |
| 2026-04-25 18:34 | 24.80025 | -81.85391 | 5396 ft | 269 kts | 213° |
| 2026-04-25 18:34 | 24.78457 | -81.86496 | 4925 ft | 266 kts | 213° |
| 2026-04-25 18:34 | 24.76898 | -81.87597 | 4528 ft | 266 kts | 213° |
| 2026-04-25 18:34 | 24.75349 | -81.88692 | 4185 ft | 264 kts | 213° |
| 2026-04-25 18:35 | 24.73809 | -81.89783 | 3833 ft | 263 kts | 213° |
| 2026-04-25 18:35 | 24.72294 | -81.90857 | 3484 ft | 261 kts | 213° |
| 2026-04-25 18:35 | 24.70749 | -81.91951 | 3147 ft | 260 kts | 213° |
| 2026-04-25 18:35 | 24.69251 | -81.93010 | 3035 ft | 251 kts | 213° |
| 2026-04-25 18:36 | 24.67831 | -81.94011 | 2957 ft | 240 kts | 213° |
| 2026-04-25 18:36 | 24.66455 | -81.94979 | 2880 ft | 228 kts | 213° |
| 2026-04-25 18:36 | 24.65147 | -81.95897 | 2803 ft | 220 kts | 213° |
| 2026-04-25 18:36 | 24.63824 | -81.96645 | 2728 ft | 209 kts | 198° |
| 2026-04-25 18:37 | 24.62423 | -81.96888 | 2614 ft | 202 kts | 180° |
| 2026-04-25 18:37 | 24.61030 | -81.96861 | 2492 ft | 198 kts | 180° |
| 2026-04-25 18:37 | 24.59695 | -81.96840 | 2403 ft | 186 kts | 180° |
| 2026-04-25 18:37 | 24.58432 | -81.96821 | 2263 ft | 177 kts | 180° |
| 2026-04-25 18:38 | 24.57241 | -81.96724 | 2130 ft | 170 kts | 165° |
| 2026-04-25 18:38 | 24.56218 | -81.96119 | 2000 ft | 168 kts | 137° |
| 2026-04-25 18:38 | 24.55570 | -81.95070 | 1865 ft | 167 kts | 109° |
| 2026-04-25 18:38 | 24.55425 | -81.93813 | 1748 ft | 167 kts | 88° |
| 2026-04-25 18:39 | 24.55446 | -81.92536 | 1628 ft | 167 kts | 89° |
| 2026-04-25 18:39 | 24.55461 | -81.91261 | 1500 ft | 167 kts | 89° |
| 2026-04-25 18:39 | 24.55474 | -81.89992 | 1443 ft | 165 kts | 89° |
| 2026-04-25 18:39 | 24.55487 | -81.88751 | 1553 ft | 155 kts | 89° |
| 2026-04-25 18:40 | 24.55499 | -81.87588 | 1542 ft | 149 kts | 89° |
| 2026-04-25 18:40 | 24.55509 | -81.86465 | 1541 ft | 146 kts | 89° |
| 2026-04-25 18:40 | 24.55520 | -81.85367 | 1546 ft | 145 kts | 89° |
| 2026-04-25 18:40 | 24.55532 | -81.84252 | 1445 ft | 147 kts | 89° |
| 2026-04-25 18:41 | 24.55542 | -81.83139 | 1229 ft | 145 kts | 89° |
| 2026-04-25 18:41 | 24.55552 | -81.82036 | 1029 ft | 144 kts | 89° |
| 2026-04-25 18:41 | 24.55564 | -81.80939 | 835 ft | 144 kts | 89° |
| 2026-04-25 18:41 | 24.55575 | -81.79843 | 644 ft | 143 kts | 89° |
| 2026-04-25 18:42 | 24.55587 | -81.78751 | 453 ft | 142 kts | 89° |
| 2026-04-25 18:42 | 24.55591 | -81.78383 | 390 ft | 142 kts | 89° |
| 2026-04-25 18:42 | 24.55609 | -81.76582 | 21 ft | 137 kts | 90° |
| 2026-04-25 18:42 | 24.55614 | -81.75751 | 13 ft | 69 kts | 89° |
| 2026-04-25 18:43 | 24.55616 | -81.75534 | 15 ft | 1 kts | 86° |
| 2026-04-25 18:43 | 24.55619 | -81.75437 | 14 ft | 23 kts | 90° |
| 2026-04-25 18:43 | 24.55616 | -81.75273 | 13 ft | 13 kts | 93° |
| 2026-04-25 18:43 | 24.55555 | -81.75238 | 13 ft | 10 kts | 182° |
| 2026-04-25 18:44 | 24.55532 | -81.75285 | 12 ft | 2 kts | 273° |
| 2026-04-25 18:44 | 24.55530 | -81.75310 | 12 ft | 4 kts | 253° |
| 2026-04-25 18:44 | 24.55497 | -81.75318 | 12 ft | 6 kts | 174° |
| 2026-04-25 18:44 | 24.55452 | -81.75338 | 12 ft | 2 kts | 220° |
| 2026-04-25 18:45 | 24.55443 | -81.75344 | 13 ft | 1 kts | 212° |
| 2026-04-25 18:45 | 24.55442 | -81.75345 | 13 ft | 0 kts | 211° |